createdAt,value
2018-12-09T00:05:03.441Z,9.4
2018-12-09T00:09:56.470Z,9.4
2018-12-09T00:14:56.223Z,9.5
2018-12-09T00:19:56.541Z,9.6
2018-12-09T00:24:56.430Z,9.6
2018-12-09T00:29:56.644Z,9.7
2018-12-09T00:34:56.712Z,9.7
2018-12-09T00:39:56.226Z,9.8
2018-12-09T00:44:56.468Z,9.8
2018-12-09T00:49:56.263Z,9.9
2018-12-09T00:54:56.600Z,10
2018-12-09T00:59:57.135Z,10
2018-12-09T01:05:08.709Z,10
2018-12-09T01:09:57.156Z,10
2018-12-09T01:14:56.742Z,9.9
2018-12-09T01:19:57.147Z,10
2018-12-09T01:24:56.159Z,9.9
2018-12-09T01:30:04.059Z,9.9
2018-12-09T01:34:58.655Z,9.9
2018-12-09T01:40:44.237Z,9.8
2018-12-09T01:45:28.040Z,9.7
2018-12-09T01:49:57.488Z,9.7
2018-12-09T01:54:56.603Z,9.7
2018-12-09T02:00:13.348Z,9.7
2018-12-09T02:04:56.787Z,9.7
2018-12-09T02:09:57.459Z,9.7
2018-12-09T02:14:56.832Z,9.7
2018-12-09T02:19:57.807Z,9.8
2018-12-09T02:24:56.192Z,9.8
2018-12-09T02:29:56.990Z,9.9
2018-12-09T02:34:56.241Z,9.9
2018-12-09T02:39:57.756Z,9.9
2018-12-09T02:44:56.596Z,9.9
2018-12-09T02:50:03.919Z,9.9
2018-12-09T02:54:59.917Z,10
2018-12-09T02:59:56.821Z,10
2018-12-09T03:04:56.462Z,10
2018-12-09T03:09:56.459Z,10
2018-12-09T03:14:56.637Z,10
2018-12-09T03:19:57.354Z,10
2018-12-09T03:24:57.512Z,10
2018-12-09T03:29:56.609Z,10.1
2018-12-09T03:34:56.724Z,10.1
2018-12-09T03:39:56.823Z,9.9
2018-12-09T03:44:56.345Z,9.8
2018-12-09T03:49:55.919Z,9.7
2018-12-09T03:54:56.055Z,9.8
2018-12-09T03:59:57.579Z,9.8
2018-12-09T04:04:56.836Z,9.8
2018-12-09T04:09:58.036Z,9.8
2018-12-09T04:14:56.077Z,9.7
2018-12-09T04:19:58.167Z,9.8
2018-12-09T04:25:06.062Z,9.7
2018-12-09T04:29:56.684Z,9.7
2018-12-09T04:34:56.094Z,9.7
2018-12-09T04:39:56.360Z,9.6
2018-12-09T04:44:55.710Z,9.6
2018-12-09T04:49:55.936Z,9.6
2018-12-09T04:54:55.640Z,9.5
2018-12-09T04:59:59.159Z,9.5
2018-12-09T05:04:55.792Z,9.4
2018-12-09T05:09:56.066Z,9.4
2018-12-09T05:14:55.459Z,9.4
2018-12-09T05:19:55.874Z,9.5
2018-12-09T05:24:55.615Z,9.6
2018-12-09T05:29:55.814Z,9.6
2018-12-09T05:34:55.832Z,9.6
2018-12-09T05:39:55.890Z,9.6
2018-12-09T05:44:55.637Z,9.6
2018-12-09T05:49:55.833Z,9.5
2018-12-09T05:54:55.847Z,9.6
2018-12-09T05:59:55.966Z,9.7
2018-12-09T06:04:55.656Z,9.6
2018-12-09T06:09:55.778Z,9.6
2018-12-09T06:14:55.728Z,9.6
2018-12-09T06:19:56.128Z,9.6
2018-12-09T06:24:55.647Z,9.5
2018-12-09T06:29:55.961Z,9.5
2018-12-09T06:34:55.378Z,9.5
2018-12-09T06:39:55.559Z,9.4
2018-12-09T06:44:55.579Z,9.4
2018-12-09T06:49:55.613Z,9.3
2018-12-09T06:54:55.691Z,9.4
2018-12-09T06:59:56.199Z,9.1
2018-12-09T07:04:55.774Z,8.8
2018-12-09T07:09:56.021Z,8.7
2018-12-09T07:14:55.720Z,8.7
2018-12-09T07:19:55.527Z,8.8
2018-12-09T07:24:55.536Z,8.9
2018-12-09T07:30:02.295Z,9
2018-12-09T07:34:55.748Z,9.1
2018-12-09T07:39:55.493Z,9.2
2018-12-09T07:44:55.751Z,9.1
2018-12-09T07:49:55.488Z,9.2
2018-12-09T07:54:55.695Z,9.2
2018-12-09T07:59:57.439Z,9.2
2018-12-09T08:04:55.327Z,9.3
2018-12-09T08:09:55.777Z,9.3
2018-12-09T08:14:55.413Z,9.3
2018-12-09T08:19:55.537Z,9.3
2018-12-09T08:24:55.571Z,9.4
2018-12-09T08:29:55.887Z,9.5
2018-12-09T08:34:55.568Z,9.5
2018-12-09T08:39:55.932Z,9.4
2018-12-09T08:44:55.313Z,9.4
2018-12-09T08:49:55.436Z,9.3
2018-12-09T08:54:55.768Z,9
2018-12-09T08:59:57.277Z,9
2018-12-09T09:04:55.632Z,8.9
2018-12-09T09:09:55.626Z,8.6
2018-12-09T09:14:55.440Z,8.5
2018-12-09T09:19:55.513Z,8.5
2018-12-09T09:24:55.513Z,8.5
2018-12-09T09:29:55.250Z,8.5
2018-12-09T09:34:55.478Z,8.5
2018-12-09T09:39:55.878Z,8.6
2018-12-09T09:44:55.485Z,8.6
2018-12-09T09:49:55.549Z,8.8
2018-12-09T09:54:55.313Z,8.8
2018-12-09T10:00:18.877Z,8.8
2018-12-09T10:04:56.064Z,8.9
2018-12-09T10:09:56.342Z,8.9
2018-12-09T10:14:55.446Z,8.8
2018-12-09T10:19:55.574Z,8.8
2018-12-09T10:24:55.382Z,8.9
2018-12-09T10:29:55.279Z,9
2018-12-09T10:34:55.447Z,9.1
2018-12-09T10:39:55.340Z,9.1
2018-12-09T10:44:55.274Z,9.1
2018-12-09T10:49:55.499Z,9.1
2018-12-09T10:54:55.048Z,9.4
2018-12-09T10:59:56.512Z,9.6
2018-12-09T11:04:57.141Z,9.4
2018-12-09T11:09:58.453Z,9.5
2018-12-09T11:14:56.004Z,9.5
2018-12-09T11:19:56.817Z,9.6
2018-12-09T11:25:00.668Z,9.6
2018-12-09T11:29:55.376Z,9.6
2018-12-09T11:34:55.546Z,9.6
2018-12-09T11:39:55.428Z,9.8
2018-12-09T11:44:55.316Z,9.9
2018-12-09T11:49:55.663Z,10
2018-12-09T11:54:55.655Z,10.2
2018-12-09T11:59:57.486Z,10.2
2018-12-09T12:04:55.650Z,10.1
2018-12-09T12:09:56.589Z,10.2
2018-12-09T12:14:56.390Z,9.8
2018-12-09T12:19:57.581Z,9.5
2018-12-09T12:24:57.032Z,9.6
2018-12-09T12:29:55.485Z,9.9
2018-12-09T12:34:55.502Z,10.1
2018-12-09T12:39:55.064Z,10.4
2018-12-09T12:44:55.913Z,10.5
2018-12-09T12:49:55.584Z,10.5
2018-12-09T12:54:57.212Z,10.4
2018-12-09T12:59:56.047Z,10.1
2018-12-09T13:04:55.579Z,9.9
2018-12-09T13:09:55.495Z,10
2018-12-09T13:14:58.671Z,10.2
2018-12-09T13:19:55.986Z,10.1
2018-12-09T13:24:55.467Z,10.1
2018-12-09T13:29:56.016Z,10
2018-12-09T13:34:55.433Z,10
2018-12-09T13:39:55.647Z,10
2018-12-09T13:44:56.665Z,9.9
2018-12-09T13:49:56.345Z,9.8
2018-12-09T13:54:56.128Z,9.7
2018-12-09T14:00:02.066Z,9.7
2018-12-09T14:04:55.327Z,9.6
2018-12-09T14:09:56.008Z,9.6
2018-12-09T14:14:55.173Z,9.7
2018-12-09T14:19:56.162Z,9.6
2018-12-09T14:24:55.282Z,9.5
2018-12-09T14:29:56.331Z,9.4
2018-12-09T14:35:02.852Z,9.4
2018-12-09T14:39:54.939Z,9.5
2018-12-09T14:44:55.381Z,9.5
2018-12-09T14:49:55.087Z,9.5
2018-12-09T14:54:55.348Z,9.6
2018-12-09T14:59:55.501Z,9.4
2018-12-09T15:04:55.341Z,9.4
2018-12-09T15:09:55.986Z,9.3
2018-12-09T15:14:55.917Z,9.2
2018-12-09T15:20:16.488Z,9.3
2018-12-09T15:24:55.005Z,9.1
2018-12-09T15:29:55.498Z,8.8
2018-12-09T15:34:55.763Z,8.5
2018-12-09T15:39:55.230Z,8.4
2018-12-09T15:44:55.113Z,8.4
2018-12-09T15:49:55.456Z,8.3
2018-12-09T15:54:54.922Z,8.1
2018-12-09T15:59:55.758Z,8.1
2018-12-09T16:05:10.923Z,8
2018-12-09T16:09:54.973Z,7.9
2018-12-09T16:14:55.093Z,8
2018-12-09T16:19:55.031Z,8
2018-12-09T16:24:55.118Z,8
2018-12-09T16:29:54.996Z,8
2018-12-09T16:34:54.934Z,8.1
2018-12-09T16:39:55.210Z,8.1
2018-12-09T17:49:56.107Z,8.2
2018-12-09T17:54:54.494Z,8.2
2018-12-09T17:59:54.641Z,8.3
2018-12-09T18:04:54.589Z,8.1
2018-12-09T18:09:54.501Z,8
2018-12-09T18:14:54.655Z,8
2018-12-09T18:19:54.444Z,8.2
2018-12-09T18:24:54.658Z,8
2018-12-09T18:29:54.492Z,8.1
2018-12-09T18:34:54.449Z,8.1
2018-12-09T18:39:54.651Z,8
2018-12-09T18:44:54.351Z,8
2018-12-09T18:49:54.382Z,8.1
2018-12-09T18:54:54.339Z,7.9
2018-12-09T18:59:54.476Z,7.6
2018-12-09T19:04:54.616Z,7.6
2018-12-09T19:09:54.387Z,7.6
2018-12-09T19:14:54.255Z,7.5
2018-12-09T19:19:54.394Z,7.6
2018-12-09T19:24:54.493Z,7.5
2018-12-09T19:29:54.504Z,7.6
2018-12-09T19:34:54.563Z,7.8
2018-12-09T19:39:54.212Z,7.6
2018-12-09T19:44:54.416Z,7.5
2018-12-09T19:49:54.346Z,7.3
2018-12-09T19:54:54.540Z,7.3
2018-12-09T19:59:54.188Z,7.3
2018-12-09T20:04:54.509Z,7.3
2018-12-09T20:09:54.459Z,7.3
2018-12-09T20:14:54.534Z,7.3
2018-12-09T20:19:54.779Z,7.2
2018-12-09T20:24:54.448Z,7.4
2018-12-09T20:29:54.674Z,7.2
2018-12-09T20:34:54.153Z,7.2
2018-12-09T20:39:54.583Z,7
2018-12-09T20:44:54.359Z,7.2
2018-12-09T20:49:54.391Z,7
2018-12-09T20:54:54.565Z,7
2018-12-09T20:59:54.164Z,7
2018-12-09T21:04:54.212Z,7.1
2018-12-09T21:09:54.150Z,7.2
2018-12-09T21:14:54.298Z,7.3
2018-12-09T21:19:54.171Z,6.9
2018-12-09T21:24:54.166Z,6.9
2018-12-09T21:29:54.235Z,6.8
2018-12-09T21:34:54.441Z,6.9
2018-12-09T21:39:54.238Z,6.7
2018-12-09T21:44:54.161Z,6.7
2018-12-09T21:49:54.219Z,6.8
2018-12-09T22:04:56.185Z,7
2018-12-09T22:09:54.103Z,6.9
2018-12-09T22:14:54.328Z,7
2018-12-09T22:19:54.213Z,7
2018-12-09T22:24:54.032Z,7
2018-12-09T22:29:54.345Z,6.8
2018-12-09T22:34:54.164Z,7
2018-12-09T22:39:54.233Z,7.2
2018-12-09T22:44:54.159Z,6.9
2018-12-09T22:49:54.114Z,6.4
2018-12-09T22:54:53.977Z,6.4
2018-12-09T22:59:54.174Z,6.3
2018-12-09T23:04:54.103Z,6.3
2018-12-09T23:09:54.171Z,6.3
2018-12-09T23:14:54.228Z,6.3
2018-12-09T23:19:54.002Z,6.4
2018-12-09T23:24:54.094Z,6.3
2018-12-09T23:29:54.209Z,6.4
2018-12-09T23:34:54.073Z,6.6
2018-12-09T23:39:54.357Z,6.5
2018-12-09T23:44:53.927Z,6.4
2018-12-09T23:49:54.002Z,6.3
2018-12-09T23:54:54.050Z,6.4
2018-12-09T23:59:53.963Z,6.3
